createdAt,value
2017-11-15T00:02:17.321Z,3.9
2017-11-15T00:04:17.154Z,4.1
2017-11-15T00:06:18.002Z,4.3
2017-11-15T00:08:16.826Z,4.2
2017-11-15T00:10:17.635Z,4.4
2017-11-15T00:12:17.487Z,3.9
2017-11-15T00:14:17.307Z,3.8
2017-11-15T00:16:17.172Z,3.9
2017-11-15T00:18:17.978Z,3.9
2017-11-15T00:20:16.814Z,4
2017-11-15T00:22:16.608Z,4.6
2017-11-15T00:24:17.473Z,4
2017-11-15T00:26:17.292Z,4.4
2017-11-15T00:28:17.097Z,4.5
2017-11-15T00:30:20.912Z,4.8
2017-11-15T00:32:16.791Z,4
2017-11-15T00:34:17.564Z,4.6
2017-11-15T00:36:17.408Z,4.9
2017-11-15T00:38:17.243Z,4.1
2017-11-15T00:40:17.081Z,4.7
2017-11-15T00:42:16.911Z,5
2017-11-15T00:44:16.733Z,4.9
2017-11-15T00:46:17.584Z,4.2
2017-11-15T00:48:17.433Z,4.6
2017-11-15T00:50:21.210Z,4.7
2017-11-15T00:52:17.063Z,4.8
2017-11-15T00:54:20.850Z,4.6
2017-11-15T00:56:17.702Z,4
2017-11-15T00:58:17.545Z,4.3
2017-11-15T01:00:17.349Z,4.5
2017-11-15T01:02:17.187Z,4.6
2017-11-15T01:04:21.026Z,4.2
2017-11-15T01:06:16.851Z,4.2
2017-11-15T01:08:20.665Z,4.6
2017-11-15T01:10:17.489Z,5.1
2017-11-15T01:12:17.324Z,4.8
2017-11-15T01:14:17.137Z,4.5
2017-11-15T01:16:16.990Z,4.5
2017-11-15T01:18:17.795Z,5.5
2017-11-15T01:20:16.645Z,5
2017-11-15T01:22:17.490Z,5.2
2017-11-15T01:24:17.303Z,4.5
2017-11-15T01:26:17.124Z,4.7
2017-11-15T01:28:16.978Z,4.4
2017-11-15T01:30:20.754Z,4.5
2017-11-15T01:32:16.600Z,4.7
2017-11-15T01:34:17.436Z,4.9
2017-11-15T01:36:17.261Z,4.7
2017-11-15T01:38:17.087Z,5
2017-11-15T01:40:17.903Z,5.1
2017-11-15T01:42:16.736Z,4.9
2017-11-15T01:44:17.527Z,5.6
2017-11-15T01:46:17.372Z,5
2017-11-15T01:48:21.163Z,4.9
2017-11-15T01:50:17.008Z,5.1
2017-11-15T01:52:16.875Z,4.6
2017-11-15T01:54:20.662Z,5.1
2017-11-15T01:56:17.512Z,5.3
2017-11-15T01:58:17.335Z,5.4
2017-11-15T02:00:21.157Z,5.1
2017-11-15T02:02:17.026Z,5.3
2017-11-15T02:04:16.860Z,4.3
2017-11-15T02:06:17.704Z,5.1
2017-11-15T02:08:17.547Z,4.9
2017-11-15T02:10:17.375Z,5.5
2017-11-15T02:12:17.229Z,5.2
2017-11-15T02:14:17.069Z,4.3
2017-11-15T02:16:16.897Z,4.4
2017-11-15T02:18:17.724Z,5.2
2017-11-15T02:20:17.575Z,5.7
2017-11-15T02:22:17.435Z,4.6
2017-11-15T02:24:17.273Z,5.1
2017-11-15T02:26:17.123Z,4.9
2017-11-15T02:28:20.929Z,5.4
2017-11-15T02:30:16.775Z,5.1
2017-11-15T02:32:16.629Z,5.3
2017-11-15T02:34:21.412Z,5.6
2017-11-15T02:36:17.310Z,5.9
2017-11-15T02:38:21.119Z,5.4
2017-11-15T02:40:17.959Z,5.5
2017-11-15T02:42:16.825Z,5.1
2017-11-15T02:44:20.623Z,5.3
2017-11-15T02:46:21.455Z,5.6
2017-11-15T02:48:17.332Z,5.3
2017-11-15T02:50:21.147Z,5.7
2017-11-15T02:52:16.992Z,4.9
2017-11-15T02:54:17.175Z,6.2
2017-11-15T02:56:17.659Z,5.9
2017-11-15T02:58:17.517Z,5.7
2017-11-15T03:00:17.349Z,5.8
2017-11-15T03:02:17.164Z,6.4
2017-11-15T03:04:17.031Z,6.1
2017-11-15T03:06:16.861Z,5.7
2017-11-15T03:08:16.716Z,5.8
2017-11-15T03:10:17.575Z,6.8
2017-11-15T03:12:17.401Z,5
2017-11-15T03:14:17.223Z,5.6
2017-11-15T03:16:17.068Z,6.2
2017-11-15T03:18:17.903Z,5.5
2017-11-15T03:20:16.738Z,5.6
2017-11-15T03:22:16.592Z,6
2017-11-15T03:24:17.384Z,5.8
2017-11-15T03:26:17.263Z,6.3
2017-11-15T03:28:21.082Z,5.8
2017-11-15T03:30:20.856Z,6
2017-11-15T03:32:16.707Z,6
2017-11-15T03:34:17.543Z,6.5
2017-11-15T03:36:17.312Z,6.5
2017-11-15T03:38:17.121Z,6.1
2017-11-15T03:40:17.963Z,6.3
2017-11-15T03:42:16.781Z,5.7
2017-11-15T03:44:16.586Z,5.6
2017-11-15T03:46:17.433Z,6.6
2017-11-15T03:48:17.235Z,5.7
2017-11-15T03:50:21.057Z,6.3
2017-11-15T03:52:16.952Z,5.1
2017-11-15T03:54:16.753Z,6
2017-11-15T03:56:17.576Z,6.2
2017-11-15T03:58:17.432Z,6.3
2017-11-15T04:00:17.257Z,6.4
2017-11-15T04:02:17.102Z,5.8
2017-11-15T04:04:16.983Z,6.4
2017-11-15T04:06:17.787Z,5.9
2017-11-15T04:08:16.645Z,6.4
2017-11-15T04:10:17.501Z,6.6
2017-11-15T04:12:17.315Z,7.1
2017-11-15T04:14:17.186Z,6.4
2017-11-15T04:16:17.039Z,6.4
2017-11-15T04:18:17.863Z,7.1
2017-11-15T04:20:16.679Z,7
2017-11-15T04:22:17.549Z,6.6
2017-11-15T04:24:17.375Z,7.4
2017-11-15T04:26:18.193Z,6.1
2017-11-15T04:28:17.067Z,7.3
2017-11-15T04:30:16.879Z,7.5
2017-11-15T04:32:16.751Z,7
2017-11-15T04:34:16.575Z,7.3
2017-11-15T04:36:17.381Z,7.3
2017-11-15T04:38:17.224Z,6.8
2017-11-15T04:40:18.047Z,6.9
2017-11-15T04:42:16.878Z,7.3
2017-11-15T04:44:16.730Z,7.3
2017-11-15T04:46:17.526Z,7.3
2017-11-15T04:48:17.395Z,8.2
2017-11-15T04:50:21.201Z,8.2
2017-11-15T04:52:17.087Z,7.7
2017-11-15T04:54:16.903Z,7.6
2017-11-15T04:56:16.743Z,8.9
2017-11-15T04:58:17.594Z,8
2017-11-15T05:00:17.427Z,8.3
2017-11-15T05:02:17.297Z,7.5
2017-11-15T05:04:21.088Z,7.2
2017-11-15T05:06:16.928Z,8.1
2017-11-15T05:08:16.743Z,8.5
2017-11-15T05:10:17.559Z,8.4
2017-11-15T05:12:17.401Z,9.6
2017-11-15T05:14:17.249Z,7.9
2017-11-15T05:16:17.066Z,7.6
2017-11-15T05:18:16.933Z,7.7
2017-11-15T05:20:16.781Z,8.6
2017-11-15T05:22:16.581Z,8
2017-11-15T05:24:17.416Z,8.2
2017-11-15T05:26:17.243Z,7.6
2017-11-15T05:28:17.067Z,7.7
2017-11-15T05:30:16.897Z,8.3
2017-11-15T05:32:16.783Z,8.5
2017-11-15T05:34:20.578Z,7.5
2017-11-15T05:36:17.401Z,8.1
2017-11-15T05:38:17.270Z,8.4
2017-11-15T05:40:17.078Z,7.5
2017-11-15T05:42:16.931Z,9.2
2017-11-15T05:44:16.782Z,8.1
2017-11-15T05:46:17.606Z,8.3
2017-11-15T05:48:17.460Z,8.3
2017-11-15T05:50:17.262Z,8.6
2017-11-15T05:52:17.105Z,8.2
2017-11-15T05:54:16.948Z,8.2
2017-11-15T05:56:16.792Z,8.4
2017-11-15T05:58:16.603Z,8
2017-11-15T06:00:17.429Z,7.1
2017-11-15T06:02:17.276Z,7.3
2017-11-15T06:04:17.082Z,7.6
2017-11-15T06:06:17.921Z,7.7
2017-11-15T06:08:16.775Z,7.6
2017-11-15T06:10:17.591Z,7.9
2017-11-15T06:12:18.461Z,8
2017-11-15T06:14:18.242Z,8.3
2017-11-15T06:16:17.142Z,8.1
2017-11-15T06:18:17.922Z,7.8
2017-11-15T06:20:17.820Z,8.4
2017-11-15T06:22:17.563Z,8.5
2017-11-15T06:24:18.364Z,8.6
2017-11-15T06:26:18.205Z,7.9
2017-11-15T06:28:18.083Z,8.3
2017-11-15T06:30:17.855Z,8.2
2017-11-15T06:32:17.750Z,8.2
2017-11-15T06:34:17.502Z,8.1
2017-11-15T06:36:17.313Z,8
2017-11-15T06:38:17.154Z,8.1
2017-11-15T06:40:17.978Z,8.7
2017-11-15T06:42:16.809Z,8.6
2017-11-15T06:44:16.661Z,8.2
2017-11-15T06:46:17.451Z,8.7
2017-11-15T06:48:17.299Z,9
2017-11-15T06:50:17.124Z,8.9
2017-11-15T06:52:16.966Z,8
2017-11-15T06:54:16.811Z,8.5
2017-11-15T06:56:17.608Z,8.4
2017-11-15T06:58:17.458Z,8.8
2017-11-15T07:00:18.331Z,8
2017-11-15T07:02:17.127Z,8.7
2017-11-15T07:04:16.992Z,8.3
2017-11-15T07:06:16.863Z,8.8
2017-11-15T07:08:16.707Z,9.1
2017-11-15T07:10:17.565Z,8
2017-11-15T07:12:17.400Z,8.6
2017-11-15T07:14:17.193Z,9
2017-11-15T07:16:21.018Z,8.6
2017-11-15T07:18:16.914Z,8.1
2017-11-15T07:20:16.725Z,9
2017-11-15T07:22:17.564Z,9.1
2017-11-15T07:24:17.456Z,8.3
2017-11-15T07:26:17.313Z,8.4
2017-11-15T07:28:17.129Z,9.9
2017-11-15T07:30:18.011Z,10.1
2017-11-15T07:32:16.862Z,9.5
2017-11-15T07:34:16.689Z,7.9
2017-11-15T07:36:17.524Z,7.2
2017-11-15T07:38:17.341Z,7.8
2017-11-15T07:40:17.218Z,8.7
2017-11-15T07:42:17.088Z,8.9
2017-11-15T07:44:16.895Z,8.1
2017-11-15T07:46:17.760Z,8.2
2017-11-15T07:48:16.653Z,7.7
2017-11-15T07:50:17.456Z,7.9
2017-11-15T07:52:17.315Z,7.9
2017-11-15T07:54:17.197Z,8
2017-11-15T07:56:18.005Z,7.6
2017-11-15T07:58:16.873Z,7.1
2017-11-15T08:00:16.707Z,7.2
2017-11-15T08:02:17.551Z,7.4
2017-11-15T08:04:17.395Z,6.8
2017-11-15T08:06:17.242Z,7.4
2017-11-15T08:08:17.092Z,7.6
2017-11-15T08:10:17.964Z,6.3
2017-11-15T08:12:16.775Z,6.8
2017-11-15T08:14:16.673Z,6.7
2017-11-15T08:16:17.512Z,7.3
2017-11-15T08:18:18.345Z,7.1
2017-11-15T08:20:17.213Z,7.2
2017-11-15T08:22:17.106Z,6.8
2017-11-15T08:24:16.909Z,6.8
2017-11-15T08:26:17.776Z,6.6
2017-11-15T08:28:16.649Z,6.2
2017-11-15T08:30:17.494Z,6.3
2017-11-15T08:32:17.335Z,6.3
2017-11-15T08:34:17.233Z,6.5
2017-11-15T08:36:18.056Z,7.2
2017-11-15T08:38:16.922Z,6.9
2017-11-15T08:40:17.807Z,5.6
2017-11-15T08:42:16.660Z,5.9
2017-11-15T08:44:17.488Z,7.1
2017-11-15T08:46:17.409Z,6
2017-11-15T08:48:17.249Z,6
2017-11-15T08:50:17.114Z,5
2017-11-15T08:52:17.008Z,5.8
2017-11-15T08:54:16.838Z,5.9
2017-11-15T08:56:17.702Z,6.5
2017-11-15T08:58:17.600Z,6.4
2017-11-15T09:00:18.460Z,6.6
2017-11-15T09:02:17.342Z,6.7
2017-11-15T09:04:17.211Z,6.6
2017-11-15T09:06:18.044Z,6.3
2017-11-15T09:08:16.900Z,6.6
2017-11-15T09:10:17.758Z,5.6
2017-11-15T09:12:16.638Z,6.8
2017-11-15T09:14:17.476Z,6.1
2017-11-15T09:16:17.365Z,5.6
2017-11-15T09:18:21.239Z,6
2017-11-15T09:20:17.099Z,6
2017-11-15T09:22:16.986Z,6.3
2017-11-15T09:24:16.838Z,6
2017-11-15T09:26:17.703Z,5.8
2017-11-15T09:28:17.623Z,6.1
2017-11-15T09:30:17.470Z,7.9
2017-11-15T09:32:17.325Z,7.2
2017-11-15T09:34:17.246Z,5.9
2017-11-15T09:36:17.099Z,5.9
2017-11-15T09:38:16.956Z,5.6
2017-11-15T09:40:17.875Z,6.5
2017-11-15T09:42:16.734Z,6.1
2017-11-15T09:44:16.629Z,5.4
2017-11-15T09:46:17.530Z,6.1
2017-11-15T09:48:17.364Z,5.1
2017-11-15T09:50:17.243Z,5.4
2017-11-15T09:52:17.160Z,5.5
2017-11-15T09:54:17.017Z,6.2
2017-11-15T09:56:17.871Z,5.9
2017-11-15T09:58:16.779Z,5.4
2017-11-15T10:00:17.601Z,5.7
2017-11-15T10:02:17.494Z,4.9
2017-11-15T10:04:17.386Z,5.2
2017-11-15T10:06:17.233Z,5.6
2017-11-15T10:08:17.074Z,5.6
2017-11-15T10:10:17.946Z,5.5
2017-11-15T10:12:16.819Z,5.4
2017-11-15T10:14:16.690Z,5.1
2017-11-15T10:16:17.573Z,5.1
2017-11-15T10:18:18.422Z,4.7
2017-11-15T10:20:17.339Z,4.3
2017-11-15T10:22:17.211Z,5.5
2017-11-15T10:24:17.032Z,4.8
2017-11-15T10:26:17.917Z,4.3
2017-11-15T10:28:16.802Z,4.3
2017-11-15T10:30:16.638Z,4.7
2017-11-15T10:32:17.529Z,4.4
2017-11-15T10:36:17.281Z,3.6
2017-11-15T10:38:17.116Z,3.8
2017-11-15T10:40:18.022Z,4.1
2017-11-15T10:42:16.865Z,3.6
2017-11-15T10:44:16.754Z,4.1
2017-11-15T10:46:17.639Z,4
2017-11-15T10:48:17.507Z,3.9
2017-11-15T10:50:17.397Z,4.2
2017-11-15T10:52:17.294Z,3.7
2017-11-15T10:54:17.130Z,3.7
2017-11-15T10:56:17.007Z,4.3
2017-11-15T10:58:16.898Z,4.2
2017-11-15T11:00:16.721Z,3.8
2017-11-15T11:02:17.595Z,4.3
2017-11-15T11:04:17.507Z,4
2017-11-15T11:06:17.347Z,3.5
2017-11-15T11:08:17.276Z,4.5
2017-11-15T11:10:17.136Z,3.6
2017-11-15T11:12:16.991Z,3.5
2017-11-15T11:14:16.904Z,4.2
2017-11-15T11:16:16.776Z,3.7
2017-11-15T11:18:16.658Z,4.1
2017-11-15T11:20:17.533Z,3.7
2017-11-15T11:22:17.407Z,4.1
2017-11-15T11:24:17.333Z,3.7
2017-11-15T11:26:17.190Z,3.7
2017-11-15T11:28:17.086Z,4.4
2017-11-15T11:30:16.973Z,4
2017-11-15T11:32:16.897Z,4.2
2017-11-15T11:34:16.729Z,4.7
2017-11-15T11:36:17.609Z,4.8
2017-11-15T11:38:17.526Z,5.1
2017-11-15T11:40:17.426Z,4.3
2017-11-15T11:42:17.245Z,4.4
2017-11-15T11:44:17.151Z,4.1
2017-11-15T11:46:18.010Z,3.4
2017-11-15T11:48:16.917Z,3.8
2017-11-15T11:50:16.808Z,4
2017-11-15T11:52:16.668Z,4.4
2017-11-15T11:54:17.557Z,4.1
2017-11-15T11:56:17.437Z,4.1
2017-11-15T11:58:17.348Z,4.1
2017-11-15T12:00:17.226Z,3.9
2017-11-15T12:02:17.136Z,4
2017-11-15T12:04:16.983Z,4.1
2017-11-15T12:06:17.853Z,3.8
2017-11-15T12:08:16.766Z,3.9
2017-11-15T12:10:17.619Z,3.8
2017-11-15T12:12:17.521Z,4.3
2017-11-15T12:14:17.395Z,4
2017-11-15T12:16:17.248Z,4.5
2017-11-15T12:18:17.148Z,5
2017-11-15T12:20:17.022Z,5
2017-11-15T12:22:16.923Z,4.9
2017-11-15T12:24:16.819Z,4.2
2017-11-15T12:26:17.766Z,4.8
2017-11-15T12:28:16.634Z,5.4
2017-11-15T12:30:17.512Z,5.2
2017-11-15T12:32:17.456Z,5.5
2017-11-15T12:34:17.289Z,5.9
2017-11-15T12:36:17.173Z,5.4
2017-11-15T12:38:17.094Z,5.3
2017-11-15T12:40:17.951Z,5.6
2017-11-15T12:42:16.829Z,5.3
2017-11-15T12:44:16.757Z,5.3
2017-11-15T12:46:17.607Z,5.4
2017-11-15T12:48:17.502Z,5.5
2017-11-15T12:50:17.353Z,5.1
2017-11-15T12:52:17.250Z,5.5
2017-11-15T12:54:17.126Z,4.7
2017-11-15T12:56:17.006Z,5.1
2017-11-15T12:58:16.916Z,4.1
2017-11-15T13:00:16.819Z,4.2
2017-11-15T13:02:16.705Z,4.8
2017-11-15T13:04:17.550Z,4.3
2017-11-15T13:06:17.414Z,4.6
2017-11-15T13:08:17.323Z,4.5
2017-11-15T13:10:17.162Z,4.3
2017-11-15T13:12:17.043Z,4.6
2017-11-15T13:14:16.976Z,4.9
2017-11-15T13:16:17.834Z,3.9
2017-11-15T13:18:17.703Z,3.9
2017-11-15T13:20:17.563Z,4.1
2017-11-15T13:22:17.465Z,4.1
2017-11-15T13:24:17.313Z,3.8
2017-11-15T13:26:17.228Z,3.7
2017-11-15T13:28:17.084Z,3.8
2017-11-15T13:30:16.974Z,4.2
2017-11-15T13:32:16.876Z,3.4
2017-11-15T13:34:16.745Z,3.6
2017-11-15T13:36:17.632Z,3.5
2017-11-15T13:38:17.558Z,3.8
2017-11-15T13:40:17.417Z,3
2017-11-15T13:42:17.284Z,4
2017-11-15T13:44:17.221Z,3.8
2017-11-15T13:46:18.072Z,3.4
2017-11-15T13:48:17.005Z,3.5
2017-11-15T13:50:16.840Z,3.4
2017-11-15T13:52:16.746Z,3.6
2017-11-15T13:54:16.611Z,3.2
2017-11-15T13:56:17.491Z,3.4
2017-11-15T13:58:17.376Z,3.5
2017-11-15T14:00:17.227Z,3.2
2017-11-15T14:02:17.155Z,3.2
2017-11-15T14:04:17.042Z,2.7
2017-11-15T14:06:16.874Z,4.3
2017-11-15T14:08:16.805Z,3.2
2017-11-15T14:10:17.661Z,3.8
2017-11-15T14:12:17.559Z,3.5
2017-11-15T14:14:17.468Z,3.7
2017-11-15T14:16:17.317Z,3.6
2017-11-15T14:18:17.209Z,3.6
2017-11-15T14:20:17.124Z,3.4
2017-11-15T14:22:16.990Z,3.3
2017-11-15T14:24:16.882Z,3.6
2017-11-15T14:26:17.785Z,3.8
2017-11-15T14:28:16.636Z,3.6
2017-11-15T14:30:17.518Z,3.2
2017-11-15T14:32:17.448Z,4.1
2017-11-15T14:34:17.300Z,4.9
2017-11-15T14:36:17.193Z,3.7
2017-11-15T14:38:17.111Z,3.5
2017-11-15T14:40:17.969Z,3.4
2017-11-15T14:42:16.879Z,3.6
2017-11-15T14:44:16.821Z,3.5
2017-11-15T14:46:17.683Z,3.5
2017-11-15T14:48:17.575Z,4
2017-11-15T14:50:17.482Z,3.9
2017-11-15T14:52:17.385Z,3.1
2017-11-15T14:54:17.257Z,4.1
2017-11-15T14:56:18.165Z,3.5
2017-11-15T14:58:17.012Z,4.4
2017-11-15T15:00:16.896Z,3.3
2017-11-15T15:02:16.823Z,4.1
2017-11-15T15:04:20.635Z,3.4
2017-11-15T15:06:17.521Z,3.5
2017-11-15T15:08:17.428Z,3.4
2017-11-15T15:10:17.282Z,3.5
2017-11-15T15:12:17.178Z,3.4
2017-11-15T15:14:17.062Z,3.4
2017-11-15T15:16:17.921Z,4.1
2017-11-15T15:18:16.829Z,3.4
2017-11-15T15:20:16.744Z,4.3
2017-11-15T15:22:16.594Z,4.2
2017-11-15T15:24:17.503Z,3.8
2017-11-15T15:26:17.385Z,3.8
2017-11-15T15:28:17.238Z,4
2017-11-15T15:30:17.100Z,4.1
2017-11-15T15:32:17.020Z,3.4
2017-11-15T15:34:16.870Z,4
2017-11-15T15:36:17.772Z,3.2
2017-11-15T15:38:16.681Z,3.9
2017-11-15T15:40:17.518Z,4.2
2017-11-15T15:42:17.398Z,3.8
2017-11-15T15:44:17.314Z,4.1
2017-11-15T15:46:17.144Z,4.3
2017-11-15T15:48:17.020Z,4.2
2017-11-15T15:50:16.897Z,4.3
2017-11-15T15:52:16.789Z,4.2
2017-11-15T15:54:16.679Z,3.7
2017-11-15T15:56:17.609Z,4.1
2017-11-15T15:58:17.454Z,4.3
2017-11-15T16:00:17.345Z,3.6
2017-11-15T16:02:17.260Z,4
2017-11-15T16:04:17.121Z,4
2017-11-15T16:06:18.021Z,4.1
2017-11-15T16:08:16.924Z,3.8
2017-11-15T16:10:17.782Z,5.2
2017-11-15T16:12:16.688Z,4.2
2017-11-15T16:14:17.580Z,4
2017-11-15T16:16:17.444Z,4.5
2017-11-15T16:18:17.340Z,3.9
2017-11-15T16:20:17.248Z,4.2
2017-11-15T16:22:17.139Z,4.5
2017-11-15T16:24:17.004Z,4.2
2017-11-15T16:26:17.900Z,5
2017-11-15T16:28:16.798Z,5
2017-11-15T16:30:16.678Z,4.9
2017-11-15T16:32:17.586Z,4.5
2017-11-15T16:34:17.435Z,4.7
2017-11-15T16:36:18.327Z,5.3
2017-11-15T16:38:17.218Z,5.3
2017-11-15T16:40:17.081Z,5.1
2017-11-15T16:42:16.992Z,4.7
2017-11-15T16:44:16.868Z,5.5
2017-11-15T16:46:17.700Z,5
2017-11-15T16:48:17.594Z,4.7
2017-11-15T16:50:17.478Z,5
2017-11-15T16:52:17.338Z,5
2017-11-15T16:54:17.217Z,4.5
2017-11-15T16:56:17.101Z,5.2
2017-11-15T16:58:16.991Z,5.6
2017-11-15T17:00:16.840Z,4.9
2017-11-15T17:04:17.614Z,5
2017-11-15T17:06:17.451Z,5.5
2017-11-15T17:08:17.321Z,5.6
2017-11-15T17:10:17.223Z,5.2
2017-11-15T17:12:17.079Z,5.3
2017-11-15T17:14:16.967Z,5.6
2017-11-15T17:16:17.865Z,6.2
2017-11-15T17:18:20.700Z,5.9
2017-11-15T17:20:17.595Z,6.5
2017-11-15T17:22:17.502Z,5.8
2017-11-15T17:24:17.340Z,6.8
2017-11-15T17:26:18.222Z,6.1
2017-11-15T17:28:17.138Z,5.8
2017-11-15T17:30:17.986Z,5.6
2017-11-15T17:32:16.868Z,6
2017-11-15T17:34:16.780Z,5.7
2017-11-15T17:36:17.640Z,5.9
2017-11-15T17:38:17.503Z,6.1
2017-11-15T17:40:17.385Z,5.7
2017-11-15T17:42:17.260Z,6.1
2017-11-15T17:44:17.159Z,6.5
2017-11-15T17:46:18.066Z,6
2017-11-15T17:48:16.937Z,6.5
2017-11-15T17:50:16.815Z,7.2
2017-11-15T17:52:16.711Z,6.6
2017-11-15T17:54:17.575Z,6.6
2017-11-15T17:56:17.473Z,6.9
2017-11-15T17:58:17.377Z,6.4
2017-11-15T18:00:17.250Z,6.7
2017-11-15T18:02:17.150Z,7
2017-11-15T18:04:17.020Z,6.2
2017-11-15T18:06:17.881Z,7.9
2017-11-15T18:08:16.765Z,7.1
2017-11-15T18:10:17.661Z,6.6
2017-11-15T18:12:17.532Z,6.8
2017-11-15T18:14:17.409Z,7.7
2017-11-15T18:16:17.275Z,6.6
2017-11-15T18:18:17.181Z,7.4
2017-11-15T18:20:17.031Z,7.4
2017-11-15T18:22:16.968Z,7.8
2017-11-15T18:24:16.810Z,7.3
2017-11-15T18:26:17.697Z,7.4
2017-11-15T18:28:17.618Z,7.7
2017-11-15T18:30:21.472Z,7.7
2017-11-15T18:32:17.381Z,8
2017-11-15T18:34:17.285Z,8.2
2017-11-15T18:36:17.145Z,8.2
2017-11-15T18:38:17.030Z,7.2
2017-11-15T18:40:17.906Z,7.5
2017-11-15T18:42:16.771Z,8.5
2017-11-15T18:44:16.656Z,7.9
2017-11-15T18:46:17.521Z,9
2017-11-15T18:48:17.394Z,8.9
2017-11-15T18:50:17.338Z,8.5
2017-11-15T18:52:17.166Z,9.3
2017-11-15T18:54:17.075Z,8.5
2017-11-15T18:56:16.986Z,9
2017-11-15T18:58:16.835Z,8.6
2017-11-15T19:00:16.717Z,8
2017-11-15T19:02:17.644Z,8.7
2017-11-15T19:04:17.486Z,8.6
2017-11-15T19:06:17.358Z,8.9
2017-11-15T19:08:17.289Z,8.9
2017-11-15T19:10:17.160Z,8.7
2017-11-15T19:12:17.033Z,8.1
2017-11-15T19:14:16.950Z,9
2017-11-15T19:16:17.775Z,9.2
2017-11-15T19:18:16.648Z,9.7
2017-11-15T19:20:17.561Z,9.9
2017-11-15T19:22:17.367Z,10.5
2017-11-15T19:24:17.212Z,9.3
2017-11-15T19:26:18.118Z,9.9
2017-11-15T19:28:16.978Z,11
2017-11-15T19:30:16.829Z,10.9
2017-11-15T19:32:16.734Z,9.8
2017-11-15T19:34:17.575Z,9.5
2017-11-15T19:36:17.466Z,9.7
2017-11-15T19:38:17.334Z,11.1
2017-11-15T19:40:17.157Z,10.6
2017-11-15T19:42:17.049Z,11.7
2017-11-15T19:44:16.951Z,11.9
2017-11-15T19:46:17.781Z,11.3
2017-11-15T19:48:16.666Z,13.1
2017-11-15T19:52:17.436Z,11.2
2017-11-15T19:54:17.283Z,11.5
2017-11-15T19:56:17.197Z,11.6
2017-11-15T19:58:17.033Z,12.5
2017-11-15T20:00:16.908Z,11.3
2017-11-15T20:02:16.844Z,12.7
2017-11-15T20:04:16.659Z,12.6
2017-11-15T20:06:17.525Z,11.8
2017-11-15T20:08:17.419Z,12.3
2017-11-15T20:10:17.245Z,12.4
2017-11-15T20:12:17.116Z,13.6
2017-11-15T20:14:17.016Z,12.7
2017-11-15T20:16:17.857Z,12.9
2017-11-15T20:18:17.711Z,12.5
2017-11-15T20:20:17.621Z,12.9
2017-11-15T20:22:17.467Z,13.2
2017-11-15T20:24:17.342Z,13.3
2017-11-15T20:26:17.213Z,14.6
2017-11-15T20:28:17.073Z,14.2
2017-11-15T20:30:16.960Z,14.2
2017-11-15T20:32:16.859Z,13.5
2017-11-15T20:34:16.676Z,13.5
2017-11-15T20:36:17.549Z,13.6
2017-11-15T20:38:17.465Z,14.2
2017-11-15T20:40:17.310Z,15
2017-11-15T20:42:17.190Z,13.8
2017-11-15T20:44:17.075Z,14.7
2017-11-15T20:46:16.923Z,15.1
2017-11-15T20:48:16.837Z,14.7
2017-11-15T20:50:16.740Z,15.7
2017-11-15T20:52:16.571Z,15.3
2017-11-15T20:54:17.462Z,15.3
2017-11-15T20:56:17.397Z,14.8
2017-11-15T20:58:17.241Z,18.1
2017-11-15T21:00:17.132Z,16.3
2017-11-15T21:02:17.042Z,15.7
2017-11-15T21:04:16.897Z,15.9
2017-11-15T21:06:17.776Z,16.8
2017-11-15T21:08:16.681Z,15.8
2017-11-15T21:10:17.541Z,16.6
2017-11-15T21:12:17.427Z,15.9
2017-11-15T21:14:17.344Z,15.9
2017-11-15T21:16:17.204Z,16.3
2017-11-15T21:18:17.116Z,16
2017-11-15T21:20:17.022Z,17.5
2017-11-15T21:22:16.874Z,16.3
2017-11-15T21:24:16.751Z,16.4
2017-11-15T21:26:16.633Z,18.4
2017-11-15T21:28:17.521Z,17.2
2017-11-15T21:30:17.414Z,16
2017-11-15T21:32:17.336Z,16.8
2017-11-15T21:34:17.207Z,17.4
2017-11-15T21:36:18.081Z,17.4
2017-11-15T21:38:17.009Z,16.8
2017-11-15T21:40:17.867Z,17.4
2017-11-15T21:42:16.784Z,19.1
2017-11-15T21:44:16.669Z,18.1
2017-11-15T21:46:17.516Z,18.5
2017-11-15T21:48:17.394Z,17.9
2017-11-15T21:50:17.310Z,18
2017-11-15T21:52:17.196Z,18.3
2017-11-15T21:54:17.094Z,18.2
2017-11-15T21:56:16.995Z,18.4
2017-11-15T21:58:16.905Z,19.7
2017-11-15T22:00:17.745Z,18.5
2017-11-15T22:02:16.683Z,19.7
2017-11-15T22:04:17.532Z,19.2
2017-11-15T22:06:17.425Z,19.2
2017-11-15T22:08:17.365Z,18.3
2017-11-15T22:10:17.243Z,18.4
2017-11-15T22:12:17.121Z,19.5
2017-11-15T22:14:17.066Z,18.8
2017-11-15T22:16:17.927Z,18.9
2017-11-15T22:18:16.828Z,18.7
2017-11-15T22:20:16.733Z,18.1
2017-11-15T22:22:17.626Z,18.8
2017-11-15T22:24:17.509Z,17.6
2017-11-15T22:26:17.439Z,19.4
2017-11-15T22:28:17.318Z,18.5
2017-11-15T22:30:17.237Z,19.4
2017-11-15T22:32:17.086Z,18.7
2017-11-15T22:34:16.984Z,20.6
2017-11-15T22:36:17.892Z,18.6
2017-11-15T22:40:17.639Z,18.7
2017-11-15T22:42:17.558Z,18.4
2017-11-15T22:44:17.428Z,17.9
2017-11-15T22:46:17.359Z,17
2017-11-15T22:48:17.231Z,20
2017-11-15T22:50:17.061Z,18.1
2017-11-15T22:52:16.959Z,18.5
2017-11-15T22:54:16.869Z,18.1
2017-11-15T22:56:17.727Z,18.6
2017-11-15T22:58:17.608Z,18.5
2017-11-15T23:00:17.480Z,18.7
2017-11-15T23:02:17.405Z,20.5
2017-11-15T23:04:17.266Z,18.7
2017-11-15T23:06:18.168Z,18.8
2017-11-15T23:08:17.046Z,19.6
2017-11-15T23:10:17.965Z,20
2017-11-15T23:12:16.820Z,20.2
2017-11-15T23:14:16.729Z,20.5
2017-11-15T23:16:17.626Z,20.2
2017-11-15T23:18:18.491Z,19.5
2017-11-15T23:20:17.350Z,20.5
2017-11-15T23:22:17.270Z,20.5
2017-11-15T23:24:17.126Z,19.5
2017-11-15T23:26:17.035Z,20.4
2017-11-15T23:28:16.917Z,20.1
2017-11-15T23:32:17.700Z,19.5
2017-11-15T23:34:17.600Z,20.6
2017-11-15T23:36:17.478Z,19.2
2017-11-15T23:38:17.363Z,20.2
2017-11-15T23:40:17.258Z,20.2
2017-11-15T23:42:17.152Z,19.7
2017-11-15T23:44:17.054Z,20.2
2017-11-15T23:46:17.943Z,20.8
2017-11-15T23:48:16.843Z,19.8
2017-11-15T23:50:16.738Z,19.9
2017-11-15T23:52:17.637Z,19.2
2017-11-15T23:54:17.498Z,19.6
2017-11-15T23:56:17.391Z,19.8
2017-11-15T23:58:17.317Z,18.8
